7°C Temp
3°C Dewpoint
76% Humidity
Temperature
8 KM/H
5 MPH
4 KTS
130°
South East

Wind Speed
Clear
Conditions
Pressure 1026.92 (hPa) - 30.32 (in)
Visibility 6.2 (mi) - 10.0 (km)

Current Conditions
EGCN
Location 28(km)
Metar :EGCN 080120Z AUTO 13004KT 9999 NCD 07/03 Q1027
Wed 8th April 02:20 am

Airport
  Metar Aviation API Data Provided by https://www.checkwx.com/ PHP scripts by weather34.com ©2020